createdAt,value
2023-05-22T00:03:30.897Z,97037.39
2023-05-22T00:13:34.229Z,97033.00
2023-05-22T00:23:37.446Z,97035.64
2023-05-22T00:33:40.472Z,97036.14
2023-05-22T00:43:45.805Z,97033.30
2023-05-22T00:53:50.489Z,97032.06
2023-05-22T01:03:54.164Z,97040.41
2023-05-22T01:14:16.310Z,97031.59
2023-05-22T01:24:19.260Z,97026.81
2023-05-22T01:34:23.315Z,97026.06
2023-05-22T01:44:26.551Z,97021.48
2023-05-22T01:54:50.502Z,97024.24
2023-05-22T02:05:00.936Z,97019.23
2023-05-22T02:15:06.332Z,97014.66
2023-05-22T02:25:14.423Z,97017.91
2023-05-22T02:35:18.065Z,97025.35
2023-05-22T02:45:22.129Z,97016.62
2023-05-22T02:55:25.367Z,97016.91
2023-05-22T03:05:28.531Z,97011.66
2023-05-22T03:15:31.612Z,97010.08
2023-05-22T03:25:41.834Z,97011.88
2023-05-22T03:35:45.331Z,97017.11
2023-05-22T03:45:48.486Z,97010.38
2023-05-22T03:55:52.755Z,97012.12
2023-05-22T04:05:57.091Z,97003.42
2023-05-22T04:16:02.311Z,97007.79
2023-05-22T04:26:09.248Z,97007.25
2023-05-22T04:36:13.270Z,96995.91
2023-05-22T04:46:16.711Z,96996.52
2023-05-22T04:56:31.968Z,96997.20
2023-05-22T05:06:40.350Z,96990.76
2023-05-22T05:16:43.818Z,96978.66
2023-05-22T05:26:47.566Z,96976.13
2023-05-22T05:36:53.558Z,96968.20
2023-05-22T05:46:58.772Z,96961.63
2023-05-22T05:57:03.108Z,96957.26
2023-05-22T06:07:06.802Z,96953.77
2023-05-22T06:17:17.556Z,96950.61
2023-05-22T06:27:27.828Z,96938.27
2023-05-22T06:37:35.817Z,96931.41
2023-05-22T06:47:39.631Z,96933.22
2023-05-22T06:57:43.532Z,96939.13
2023-05-22T07:07:47.784Z,96937.63
2023-05-22T07:17:51.917Z,96934.14
2023-05-22T07:27:55.960Z,96931.45
2023-05-22T07:37:59.836Z,96928.76
2023-05-22T07:48:04.663Z,96930.11
2023-05-22T07:58:11.602Z,96928.67
2023-05-22T08:08:17.187Z,96925.30
2023-05-22T08:18:20.989Z,96920.09
2023-05-22T08:28:24.504Z,96928.19
2023-05-22T08:38:27.756Z,96927.23
2023-05-22T08:48:32.538Z,96922.23
2023-05-22T08:58:37.116Z,96922.27
2023-05-22T09:08:42.953Z,96915.95
2023-05-22T09:18:46.633Z,96918.95
2023-05-22T09:28:50.036Z,96914.74
2023-05-22T09:38:54.235Z,96903.27
2023-05-22T09:48:57.275Z,96895.21
2023-05-22T09:59:01.117Z,96892.11
2023-05-22T10:09:07.268Z,96884.22
2023-05-22T10:19:12.256Z,96878.48
2023-05-22T10:29:22.351Z,96873.52
2023-05-22T10:39:44.553Z,96870.55
2023-05-22T10:49:49.843Z,96869.84
2023-05-22T11:00:10.251Z,96855.27
2023-05-22T11:10:13.460Z,96848.77
2023-05-22T11:20:25.867Z,96847.25
2023-05-22T11:30:33.432Z,96842.02
2023-05-22T11:40:37.024Z,96839.49
2023-05-22T11:50:52.189Z,96832.41
2023-05-22T12:01:03.507Z,96824.39
2023-05-22T12:11:07.727Z,96823.54
2023-05-22T12:21:11.477Z,96815.95
2023-05-22T12:31:24.450Z,96812.57
2023-05-22T12:41:27.637Z,96807.44
2023-05-22T12:51:32.411Z,96795.02
2023-05-22T13:01:35.551Z,96790.02
2023-05-22T13:11:39.925Z,96783.00
2023-05-22T13:21:43.770Z,96776.63
2023-05-22T13:31:46.788Z,96777.15
2023-05-22T13:41:53.032Z,96774.34
2023-05-22T13:51:56.090Z,96775.21
2023-05-22T14:01:59.344Z,96755.20
2023-05-22T14:12:02.890Z,96744.92
2023-05-22T14:22:06.099Z,96743.20
2023-05-22T14:32:09.603Z,96732.27
2023-05-22T14:42:12.774Z,96720.84
2023-05-22T14:52:15.850Z,96713.55
2023-05-22T15:02:19.815Z,96712.80
2023-05-22T15:12:23.380Z,96712.38
2023-05-22T15:22:26.417Z,96710.44
2023-05-22T15:32:30.883Z,96706.92
2023-05-22T15:42:34.156Z,96701.91
2023-05-22T15:52:38.554Z,96700.06
2023-05-22T16:02:41.653Z,96701.06
2023-05-22T16:12:45.005Z,96696.77
2023-05-22T16:22:49.115Z,96699.29
2023-05-22T16:32:52.424Z,96696.58
2023-05-22T16:42:56.103Z,96699.77
2023-05-22T16:52:59.373Z,96704.13
2023-05-22T17:03:03.360Z,96706.46
2023-05-22T17:13:06.786Z,96708.13
2023-05-22T17:23:10.057Z,96713.91
2023-05-22T17:33:14.177Z,96714.73
2023-05-22T17:43:19.277Z,96713.55
2023-05-22T17:53:22.641Z,96715.85
2023-05-22T18:03:26.514Z,96714.88
2023-05-22T18:13:29.835Z,96718.30
2023-05-22T18:23:33.111Z,96710.73
2023-05-22T18:33:36.323Z,96711.54
2023-05-22T18:43:39.583Z,96706.23
2023-05-22T18:53:43.204Z,96704.23
2023-05-22T19:03:46.440Z,96701.87
2023-05-22T19:13:49.586Z,96702.38
2023-05-22T19:23:52.675Z,96711.25
2023-05-22T19:33:56.243Z,96713.35
2023-05-22T19:43:59.581Z,96708.93
2023-05-22T19:54:03.029Z,96719.88
2023-05-22T20:04:06.263Z,96721.52
2023-05-22T20:14:09.959Z,96713.27
2023-05-22T20:24:17.637Z,96709.80
2023-05-22T20:34:21.051Z,96706.65
2023-05-22T20:44:24.939Z,96705.19
2023-05-22T20:54:34.119Z,96700.20
2023-05-22T21:04:37.242Z,96693.81
2023-05-22T21:14:40.507Z,96689.48
2023-05-22T21:24:43.838Z,96688.65
2023-05-22T21:34:47.113Z,96689.77
2023-05-22T21:44:50.444Z,96687.48
2023-05-22T21:54:56.669Z,96683.27
2023-05-22T22:04:59.762Z,96680.02
2023-05-22T22:15:03.355Z,96669.59
2023-05-22T22:25:07.357Z,96665.20
2023-05-22T22:35:11.357Z,96664.73
2023-05-22T22:45:15.069Z,96662.20
2023-05-22T22:55:18.446Z,96662.64
2023-05-22T23:05:23.138Z,96651.73
2023-05-22T23:15:26.281Z,96646.21
2023-05-22T23:25:29.719Z,96645.55
2023-05-22T23:35:32.845Z,96640.66
2023-05-22T23:45:36.409Z,96626.89
2023-05-22T23:55:41.717Z,96620.80
